sensor_id;sensor_type;location;lat;lon;timestamp;P1;durP1;ratioP1;P2;durP2;ratioP2
78960;SDS011;68362;45.970;12.646;2023-04-25T00:00:46;4.88;;;4.20;;
78960;SDS011;68362;45.970;12.646;2023-04-25T00:01:55;6.35;;;3.78;;
78960;SDS011;68362;45.970;12.646;2023-04-25T00:02:58;5.57;;;4.53;;
78960;SDS011;68362;45.970;12.646;2023-04-25T00:04:01;4.85;;;4.05;;
78960;SDS011;68362;45.970;12.646;2023-04-25T00:05:04;4.32;;;3.80;;
78960;SDS011;68362;45.970;12.646;2023-04-25T00:06:06;5.63;;;4.15;;
78960;SDS011;68362;45.970;12.646;2023-04-25T00:07:09;4.82;;;3.72;;
78960;SDS011;68362;45.970;12.646;2023-04-25T00:08:12;5.13;;;4.40;;
78960;SDS011;68362;45.970;12.646;2023-04-25T00:09:14;5.20;;;4.70;;
78960;SDS011;68362;45.970;12.646;2023-04-25T00:10:16;5.97;;;4.55;;
78960;SDS011;68362;45.970;12.646;2023-04-25T00:11:19;4.65;;;4.22;;
78960;SDS011;68362;45.970;12.646;2023-04-25T00:12:21;5.95;;;4.45;;
78960;SDS011;68362;45.970;12.646;2023-04-25T00:13:24;4.65;;;4.20;;
78960;SDS011;68362;45.970;12.646;2023-04-25T00:14:27;5.78;;;4.30;;
78960;SDS011;68362;45.970;12.646;2023-04-25T00:15:30;4.90;;;4.40;;
78960;SDS011;68362;45.970;12.646;2023-04-25T00:16:32;5.70;;;4.15;;
78960;SDS011;68362;45.970;12.646;2023-04-25T00:17:36;5.53;;;4.00;;
78960;SDS011;68362;45.970;12.646;2023-04-25T00:18:40;6.38;;;4.07;;
78960;SDS011;68362;45.970;12.646;2023-04-25T00:19:43;7.90;;;3.90;;
78960;SDS011;68362;45.970;12.646;2023-04-25T00:20:47;5.65;;;4.25;;
78960;SDS011;68362;45.970;12.646;2023-04-25T00:21:49;4.75;;;3.72;;
78960;SDS011;68362;45.970;12.646;2023-04-25T00:22:51;5.43;;;3.53;;
78960;SDS011;68362;45.970;12.646;2023-04-25T00:23:55;4.65;;;3.72;;
78960;SDS011;68362;45.970;12.646;2023-04-25T00:24:57;6.95;;;4.50;;
78960;SDS011;68362;45.970;12.646;2023-04-25T00:26:02;4.70;;;4.20;;
78960;SDS011;68362;45.970;12.646;2023-04-25T00:27:04;5.25;;;4.75;;
78960;SDS011;68362;45.970;12.646;2023-04-25T00:28:06;5.05;;;3.70;;
78960;SDS011;68362;45.970;12.646;2023-04-25T00:29:08;4.82;;;4.38;;
78960;SDS011;68362;45.970;12.646;2023-04-25T00:30:10;6.25;;;4.32;;
78960;SDS011;68362;45.970;12.646;2023-04-25T00:31:13;5.20;;;4.15;;
78960;SDS011;68362;45.970;12.646;2023-04-25T00:32:16;5.00;;;4.45;;
78960;SDS011;68362;45.970;12.646;2023-04-25T00:33:18;5.32;;;4.82;;
78960;SDS011;68362;45.970;12.646;2023-04-25T00:34:19;5.70;;;4.50;;
78960;SDS011;68362;45.970;12.646;2023-04-25T00:35:22;6.15;;;4.63;;
78960;SDS011;68362;45.970;12.646;2023-04-25T00:36:24;5.00;;;4.32;;
78960;SDS011;68362;45.970;12.646;2023-04-25T00:37:26;6.90;;;4.80;;
78960;SDS011;68362;45.970;12.646;2023-04-25T00:38:28;5.65;;;5.07;;
78960;SDS011;68362;45.970;12.646;2023-04-25T00:39:30;7.75;;;5.72;;
78960;SDS011;68362;45.970;12.646;2023-04-25T00:40:32;7.18;;;4.82;;
78960;SDS011;68362;45.970;12.646;2023-04-25T00:41:34;8.73;;;5.82;;
78960;SDS011;68362;45.970;12.646;2023-04-25T00:42:37;7.55;;;5.63;;
78960;SDS011;68362;45.970;12.646;2023-04-25T00:43:39;8.55;;;5.65;;
78960;SDS011;68362;45.970;12.646;2023-04-25T00:44:42;7.38;;;5.47;;
78960;SDS011;68362;45.970;12.646;2023-04-25T00:45:45;8.32;;;5.82;;
78960;SDS011;68362;45.970;12.646;2023-04-25T00:46:50;8.77;;;7.03;;
78960;SDS011;68362;45.970;12.646;2023-04-25T00:47:52;9.95;;;6.85;;
78960;SDS011;68362;45.970;12.646;2023-04-25T00:48:54;10.52;;;6.97;;
78960;SDS011;68362;45.970;12.646;2023-04-25T00:49:56;11.10;;;7.43;;
78960;SDS011;68362;45.970;12.646;2023-04-25T00:50:58;10.38;;;7.40;;
78960;SDS011;68362;45.970;12.646;2023-04-25T00:52:01;10.48;;;7.47;;
78960;SDS011;68362;45.970;12.646;2023-04-25T00:53:03;8.00;;;6.47;;
78960;SDS011;68362;45.970;12.646;2023-04-25T00:54:06;8.98;;;6.55;;
78960;SDS011;68362;45.970;12.646;2023-04-25T00:55:08;8.07;;;5.90;;
78960;SDS011;68362;45.970;12.646;2023-04-25T00:56:11;6.15;;;5.43;;
78960;SDS011;68362;45.970;12.646;2023-04-25T00:57:14;5.13;;;4.15;;
78960;SDS011;68362;45.970;12.646;2023-04-25T00:58:16;5.43;;;4.32;;
78960;SDS011;68362;45.970;12.646;2023-04-25T00:59:19;5.22;;;4.03;;
78960;SDS011;68362;45.970;12.646;2023-04-25T01:00:22;6.40;;;4.95;;
78960;SDS011;68362;45.970;12.646;2023-04-25T01:01:24;5.05;;;4.47;;
78960;SDS011;68362;45.970;12.646;2023-04-25T01:02:26;4.93;;;4.38;;
78960;SDS011;68362;45.970;12.646;2023-04-25T01:03:29;6.22;;;4.22;;
78960;SDS011;68362;45.970;12.646;2023-04-25T01:04:37;5.20;;;4.70;;
78960;SDS011;68362;45.970;12.646;2023-04-25T01:05:40;5.22;;;4.45;;
78960;SDS011;68362;45.970;12.646;2023-04-25T01:06:43;6.43;;;4.90;;
78960;SDS011;68362;45.970;12.646;2023-04-25T01:07:45;5.68;;;4.28;;
78960;SDS011;68362;45.970;12.646;2023-04-25T01:08:48;5.07;;;4.45;;
78960;SDS011;68362;45.970;12.646;2023-04-25T01:09:51;6.05;;;4.80;;
78960;SDS011;68362;45.970;12.646;2023-04-25T01:10:53;7.10;;;4.53;;
78960;SDS011;68362;45.970;12.646;2023-04-25T01:11:55;6.88;;;4.28;;
78960;SDS011;68362;45.970;12.646;2023-04-25T01:12:59;5.20;;;4.63;;
78960;SDS011;68362;45.970;12.646;2023-04-25T01:14:01;6.65;;;5.10;;
78960;SDS011;68362;45.970;12.646;2023-04-25T01:15:03;6.88;;;5.18;;
78960;SDS011;68362;45.970;12.646;2023-04-25T01:16:06;7.18;;;4.93;;
78960;SDS011;68362;45.970;12.646;2023-04-25T01:17:08;6.10;;;4.38;;
78960;SDS011;68362;45.970;12.646;2023-04-25T01:18:12;6.50;;;4.25;;
78960;SDS011;68362;45.970;12.646;2023-04-25T01:19:15;5.25;;;4.38;;
78960;SDS011;68362;45.970;12.646;2023-04-25T01:20:20;5.75;;;4.25;;
78960;SDS011;68362;45.970;12.646;2023-04-25T01:21:24;5.55;;;4.22;;
78960;SDS011;68362;45.970;12.646;2023-04-25T01:22:29;8.25;;;4.20;;
78960;SDS011;68362;45.970;12.646;2023-04-25T01:23:31;5.40;;;4.40;;
78960;SDS011;68362;45.970;12.646;2023-04-25T01:24:34;7.13;;;4.95;;
78960;SDS011;68362;45.970;12.646;2023-04-25T01:25:37;5.90;;;4.40;;
78960;SDS011;68362;45.970;12.646;2023-04-25T01:26:40;3.97;;;3.58;;
78960;SDS011;68362;45.970;12.646;2023-04-25T01:27:46;5.47;;;4.10;;
78960;SDS011;68362;45.970;12.646;2023-04-25T01:28:48;4.35;;;3.95;;
78960;SDS011;68362;45.970;12.646;2023-04-25T01:29:51;4.75;;;4.10;;
78960;SDS011;68362;45.970;12.646;2023-04-25T01:30:54;5.80;;;4.07;;
78960;SDS011;68362;45.970;12.646;2023-04-25T01:31:56;6.13;;;4.25;;
78960;SDS011;68362;45.970;12.646;2023-04-25T01:33:00;5.05;;;4.30;;
78960;SDS011;68362;45.970;12.646;2023-04-25T01:34:02;7.07;;;4.47;;
78960;SDS011;68362;45.970;12.646;2023-04-25T01:35:05;5.22;;;4.50;;
78960;SDS011;68362;45.970;12.646;2023-04-25T01:36:11;8.77;;;4.80;;
78960;SDS011;68362;45.970;12.646;2023-04-25T01:37:14;5.47;;;4.15;;
78960;SDS011;68362;45.970;12.646;2023-04-25T01:38:18;6.03;;;4.22;;
78960;SDS011;68362;45.970;12.646;2023-04-25T01:39:20;4.25;;;3.80;;
78960;SDS011;68362;45.970;12.646;2023-04-25T01:40:22;4.93;;;3.47;;
78960;SDS011;68362;45.970;12.646;2023-04-25T01:41:26;6.40;;;4.35;;
78960;SDS011;68362;45.970;12.646;2023-04-25T01:42:29;4.97;;;3.95;;
78960;SDS011;68362;45.970;12.646;2023-04-25T01:43:31;5.38;;;4.25;;
78960;SDS011;68362;45.970;12.646;2023-04-25T01:44:33;6.85;;;4.80;;
78960;SDS011;68362;45.970;12.646;2023-04-25T01:45:35;5.22;;;3.75;;
78960;SDS011;68362;45.970;12.646;2023-04-25T01:46:38;5.43;;;3.83;;
78960;SDS011;68362;45.970;12.646;2023-04-25T01:47:40;5.47;;;3.97;;
78960;SDS011;68362;45.970;12.646;2023-04-25T01:48:44;5.55;;;4.25;;
78960;SDS011;68362;45.970;12.646;2023-04-25T01:49:47;6.80;;;4.50;;
78960;SDS011;68362;45.970;12.646;2023-04-25T01:50:49;5.07;;;4.05;;
78960;SDS011;68362;45.970;12.646;2023-04-25T01:51:51;7.07;;;4.25;;
78960;SDS011;68362;45.970;12.646;2023-04-25T01:52:53;5.05;;;3.92;;
78960;SDS011;68362;45.970;12.646;2023-04-25T01:53:55;4.63;;;3.85;;
78960;SDS011;68362;45.970;12.646;2023-04-25T01:55:01;4.45;;;3.92;;
78960;SDS011;68362;45.970;12.646;2023-04-25T01:56:04;5.38;;;3.55;;
78960;SDS011;68362;45.970;12.646;2023-04-25T01:57:06;4.10;;;3.17;;
78960;SDS011;68362;45.970;12.646;2023-04-25T01:58:08;6.45;;;3.28;;
78960;SDS011;68362;45.970;12.646;2023-04-25T01:59:11;3.65;;;3.00;;
78960;SDS011;68362;45.970;12.646;2023-04-25T02:00:13;5.75;;;3.15;;
78960;SDS011;68362;45.970;12.646;2023-04-25T02:01:16;3.60;;;2.97;;
78960;SDS011;68362;45.970;12.646;2023-04-25T02:02:17;4.10;;;3.00;;
78960;SDS011;68362;45.970;12.646;2023-04-25T02:03:19;3.92;;;2.97;;
78960;SDS011;68362;45.970;12.646;2023-04-25T02:04:22;3.58;;;2.63;;
78960;SDS011;68362;45.970;12.646;2023-04-25T02:05:24;3.75;;;2.95;;
78960;SDS011;68362;45.970;12.646;2023-04-25T02:06:26;3.47;;;2.38;;
78960;SDS011;68362;45.970;12.646;2023-04-25T02:07:28;4.60;;;2.75;;
78960;SDS011;68362;45.970;12.646;2023-04-25T02:08:30;4.22;;;2.60;;
78960;SDS011;68362;45.970;12.646;2023-04-25T02:09:33;4.82;;;2.75;;
78960;SDS011;68362;45.970;12.646;2023-04-25T02:10:35;4.07;;;3.03;;
78960;SDS011;68362;45.970;12.646;2023-04-25T02:11:37;2.97;;;2.22;;
78960;SDS011;68362;45.970;12.646;2023-04-25T02:12:39;2.70;;;2.30;;
78960;SDS011;68362;45.970;12.646;2023-04-25T02:13:41;3.53;;;2.25;;
78960;SDS011;68362;45.970;12.646;2023-04-25T02:14:43;2.80;;;2.13;;
78960;SDS011;68362;45.970;12.646;2023-04-25T02:15:45;3.92;;;2.65;;
78960;SDS011;68362;45.970;12.646;2023-04-25T02:16:48;3.42;;;2.40;;
78960;SDS011;68362;45.970;12.646;2023-04-25T02:17:50;4.53;;;2.50;;
78960;SDS011;68362;45.970;12.646;2023-04-25T02:18:54;2.60;;;2.03;;
78960;SDS011;68362;45.970;12.646;2023-04-25T02:19:56;2.17;;;1.98;;
78960;SDS011;68362;45.970;12.646;2023-04-25T02:20:59;3.55;;;2.67;;
78960;SDS011;68362;45.970;12.646;2023-04-25T02:22:01;2.80;;;2.10;;
78960;SDS011;68362;45.970;12.646;2023-04-25T02:23:03;3.72;;;2.22;;
78960;SDS011;68362;45.970;12.646;2023-04-25T02:24:05;2.90;;;2.13;;
78960;SDS011;68362;45.970;12.646;2023-04-25T02:25:08;3.22;;;2.33;;
78960;SDS011;68362;45.970;12.646;2023-04-25T02:26:11;3.05;;;2.30;;
78960;SDS011;68362;45.970;12.646;2023-04-25T02:27:12;2.72;;;1.88;;
78960;SDS011;68362;45.970;12.646;2023-04-25T02:28:14;2.30;;;1.90;;
78960;SDS011;68362;45.970;12.646;2023-04-25T02:29:17;2.95;;;2.35;;
78960;SDS011;68362;45.970;12.646;2023-04-25T02:30:19;2.15;;;1.75;;
78960;SDS011;68362;45.970;12.646;2023-04-25T02:31:21;2.13;;;1.73;;
78960;SDS011;68362;45.970;12.646;2023-04-25T02:32:23;2.75;;;1.75;;
78960;SDS011;68362;45.970;12.646;2023-04-25T02:33:25;2.20;;;1.70;;
78960;SDS011;68362;45.970;12.646;2023-04-25T02:34:27;2.30;;;2.10;;
78960;SDS011;68362;45.970;12.646;2023-04-25T02:35:29;2.55;;;1.88;;
78960;SDS011;68362;45.970;12.646;2023-04-25T02:36:31;3.33;;;2.22;;
78960;SDS011;68362;45.970;12.646;2023-04-25T02:37:36;3.55;;;2.50;;
78960;SDS011;68362;45.970;12.646;2023-04-25T02:38:39;3.53;;;2.55;;
78960;SDS011;68362;45.970;12.646;2023-04-25T02:39:41;2.35;;;2.08;;
78960;SDS011;68362;45.970;12.646;2023-04-25T02:40:43;2.40;;;2.10;;
78960;SDS011;68362;45.970;12.646;2023-04-25T02:41:45;3.17;;;2.60;;
78960;SDS011;68362;45.970;12.646;2023-04-25T02:42:47;3.45;;;2.22;;
78960;SDS011;68362;45.970;12.646;2023-04-25T02:43:49;3.08;;;2.58;;
78960;SDS011;68362;45.970;12.646;2023-04-25T02:44:52;5.22;;;3.28;;
78960;SDS011;68362;45.970;12.646;2023-04-25T02:45:54;2.97;;;2.10;;
78960;SDS011;68362;45.970;12.646;2023-04-25T02:46:56;5.90;;;2.50;;
78960;SDS011;68362;45.970;12.646;2023-04-25T02:47:58;4.82;;;2.42;;
78960;SDS011;68362;45.970;12.646;2023-04-25T02:49:00;3.38;;;2.55;;
78960;SDS011;68362;45.970;12.646;2023-04-25T02:50:03;4.38;;;2.58;;
78960;SDS011;68362;45.970;12.646;2023-04-25T02:51:05;3.22;;;2.42;;
78960;SDS011;68362;45.970;12.646;2023-04-25T02:52:07;3.15;;;2.85;;
78960;SDS011;68362;45.970;12.646;2023-04-25T02:53:09;3.50;;;2.38;;
78960;SDS011;68362;45.970;12.646;2023-04-25T02:54:11;3.20;;;2.55;;
78960;SDS011;68362;45.970;12.646;2023-04-25T02:55:13;3.47;;;2.42;;
78960;SDS011;68362;45.970;12.646;2023-04-25T02:56:16;3.53;;;2.53;;
78960;SDS011;68362;45.970;12.646;2023-04-25T02:57:18;3.28;;;2.50;;
78960;SDS011;68362;45.970;12.646;2023-04-25T02:58:20;4.00;;;2.35;;
78960;SDS011;68362;45.970;12.646;2023-04-25T02:59:22;4.03;;;2.70;;
78960;SDS011;68362;45.970;12.646;2023-04-25T03:00:24;3.38;;;2.65;;
78960;SDS011;68362;45.970;12.646;2023-04-25T03:01:26;4.05;;;2.50;;
78960;SDS011;68362;45.970;12.646;2023-04-25T03:02:29;3.35;;;2.20;;
78960;SDS011;68362;45.970;12.646;2023-04-25T03:03:31;3.63;;;2.55;;
78960;SDS011;68362;45.970;12.646;2023-04-25T03:04:33;3.90;;;2.13;;
78960;SDS011;68362;45.970;12.646;2023-04-25T03:05:35;2.83;;;2.20;;
78960;SDS011;68362;45.970;12.646;2023-04-25T03:06:37;3.20;;;2.35;;
78960;SDS011;68362;45.970;12.646;2023-04-25T03:07:39;3.88;;;2.75;;
78960;SDS011;68362;45.970;12.646;2023-04-25T03:08:42;2.72;;;1.85;;
78960;SDS011;68362;45.970;12.646;2023-04-25T03:09:44;5.85;;;2.30;;
78960;SDS011;68362;45.970;12.646;2023-04-25T03:10:46;3.67;;;2.10;;
78960;SDS011;68362;45.970;12.646;2023-04-25T03:11:49;3.00;;;2.30;;
78960;SDS011;68362;45.970;12.646;2023-04-25T03:12:51;4.60;;;2.65;;
78960;SDS011;68362;45.970;12.646;2023-04-25T03:13:53;2.75;;;1.88;;
78960;SDS011;68362;45.970;12.646;2023-04-25T03:14:56;2.80;;;1.90;;
78960;SDS011;68362;45.970;12.646;2023-04-25T03:15:58;2.67;;;1.92;;
78960;SDS011;68362;45.970;12.646;2023-04-25T03:17:00;2.47;;;1.90;;
78960;SDS011;68362;45.970;12.646;2023-04-25T03:18:02;3.40;;;2.22;;
78960;SDS011;68362;45.970;12.646;2023-04-25T03:19:05;2.53;;;1.77;;
78960;SDS011;68362;45.970;12.646;2023-04-25T03:20:07;2.45;;;1.90;;
78960;SDS011;68362;45.970;12.646;2023-04-25T03:21:09;2.30;;;1.80;;
78960;SDS011;68362;45.970;12.646;2023-04-25T03:22:11;2.67;;;1.80;;
78960;SDS011;68362;45.970;12.646;2023-04-25T03:23:14;2.83;;;1.92;;
78960;SDS011;68362;45.970;12.646;2023-04-25T03:24:16;2.75;;;2.03;;
78960;SDS011;68362;45.970;12.646;2023-04-25T03:25:18;3.05;;;1.80;;
78960;SDS011;68362;45.970;12.646;2023-04-25T03:26:20;3.03;;;1.73;;
78960;SDS011;68362;45.970;12.646;2023-04-25T03:27:22;2.53;;;1.80;;
78960;SDS011;68362;45.970;12.646;2023-04-25T03:28:24;2.60;;;1.77;;
78960;SDS011;68362;45.970;12.646;2023-04-25T03:29:27;3.15;;;1.63;;
78960;SDS011;68362;45.970;12.646;2023-04-25T03:30:30;2.03;;;1.80;;
78960;SDS011;68362;45.970;12.646;2023-04-25T03:31:32;3.40;;;1.90;;
78960;SDS011;68362;45.970;12.646;2023-04-25T03:32:34;1.98;;;1.52;;
78960;SDS011;68362;45.970;12.646;2023-04-25T03:33:36;2.35;;;1.70;;
78960;SDS011;68362;45.970;12.646;2023-04-25T03:34:38;2.63;;;1.80;;
78960;SDS011;68362;45.970;12.646;2023-04-25T03:35:41;4.70;;;1.60;;
78960;SDS011;68362;45.970;12.646;2023-04-25T03:36:44;2.08;;;1.40;;
78960;SDS011;68362;45.970;12.646;2023-04-25T03:37:46;2.70;;;1.70;;
78960;SDS011;68362;45.970;12.646;2023-04-25T03:38:48;3.65;;;1.52;;
78960;SDS011;68362;45.970;12.646;2023-04-25T03:39:50;1.50;;;1.20;;
78960;SDS011;68362;45.970;12.646;2023-04-25T03:40:52;3.15;;;1.60;;
78960;SDS011;68362;45.970;12.646;2023-04-25T03:42:57;2.95;;;1.48;;
78960;SDS011;68362;45.970;12.646;2023-04-25T03:43:59;1.95;;;1.17;;
78960;SDS011;68362;45.970;12.646;2023-04-25T03:45:01;2.00;;;1.50;;
78960;SDS011;68362;45.970;12.646;2023-04-25T03:46:03;1.38;;;1.13;;
78960;SDS011;68362;45.970;12.646;2023-04-25T03:47:06;3.88;;;1.40;;
78960;SDS011;68362;45.970;12.646;2023-04-25T03:48:08;1.50;;;1.20;;
78960;SDS011;68362;45.970;12.646;2023-04-25T03:49:10;1.80;;;1.20;;
78960;SDS011;68362;45.970;12.646;2023-04-25T03:50:12;3.38;;;1.25;;
78960;SDS011;68362;45.970;12.646;2023-04-25T03:51:14;2.60;;;1.58;;
78960;SDS011;68362;45.970;12.646;2023-04-25T03:53:19;1.88;;;1.13;;
78960;SDS011;68362;45.970;12.646;2023-04-25T03:54:21;2.38;;;1.25;;
78960;SDS011;68362;45.970;12.646;2023-04-25T03:55:23;3.05;;;1.60;;
78960;SDS011;68362;45.970;12.646;2023-04-25T03:56:26;2.30;;;1.98;;
78960;SDS011;68362;45.970;12.646;2023-04-25T03:57:28;3.58;;;2.08;;
78960;SDS011;68362;45.970;12.646;2023-04-25T03:58:30;2.83;;;1.50;;
78960;SDS011;68362;45.970;12.646;2023-04-25T03:59:32;2.50;;;2.05;;
78960;SDS011;68362;45.970;12.646;2023-04-25T04:00:34;2.03;;;1.63;;
78960;SDS011;68362;45.970;12.646;2023-04-25T04:01:37;3.17;;;1.83;;
78960;SDS011;68362;45.970;12.646;2023-04-25T04:02:39;2.33;;;1.95;;
78960;SDS011;68362;45.970;12.646;2023-04-25T04:03:45;4.03;;;1.60;;
78960;SDS011;68362;45.970;12.646;2023-04-25T04:04:47;2.13;;;1.40;;
78960;SDS011;68362;45.970;12.646;2023-04-25T04:05:50;3.28;;;1.30;;
78960;SDS011;68362;45.970;12.646;2023-04-25T04:06:52;4.03;;;1.25;;
78960;SDS011;68362;45.970;12.646;2023-04-25T04:07:57;2.08;;;1.73;;
78960;SDS011;68362;45.970;12.646;2023-04-25T04:08:59;2.78;;;1.85;;
78960;SDS011;68362;45.970;12.646;2023-04-25T04:10:01;3.80;;;1.30;;
78960;SDS011;68362;45.970;12.646;2023-04-25T04:11:03;1.85;;;1.40;;
78960;SDS011;68362;45.970;12.646;2023-04-25T04:12:05;3.05;;;1.40;;
78960;SDS011;68362;45.970;12.646;2023-04-25T04:13:08;2.35;;;1.60;;
78960;SDS011;68362;45.970;12.646;2023-04-25T04:14:10;2.33;;;1.40;;
78960;SDS011;68362;45.970;12.646;2023-04-25T04:15:12;2.67;;;1.50;;
78960;SDS011;68362;45.970;12.646;2023-04-25T04:16:14;2.95;;;1.63;;
78960;SDS011;68362;45.970;12.646;2023-04-25T04:17:17;1.80;;;1.40;;
78960;SDS011;68362;45.970;12.646;2023-04-25T04:18:19;21.40;;;6.15;;
78960;SDS011;68362;45.970;12.646;2023-04-25T04:19:21;11.43;;;3.28;;
78960;SDS011;68362;45.970;12.646;2023-04-25T04:20:23;5.15;;;2.95;;
78960;SDS011;68362;45.970;12.646;2023-04-25T04:21:25;2.08;;;1.45;;
78960;SDS011;68362;45.970;12.646;2023-04-25T04:23:30;1.75;;;1.45;;
78960;SDS011;68362;45.970;12.646;2023-04-25T04:24:32;2.28;;;1.50;;
78960;SDS011;68362;45.970;12.646;2023-04-25T04:25:35;2.78;;;1.30;;
78960;SDS011;68362;45.970;12.646;2023-04-25T04:26:37;1.80;;;1.30;;
78960;SDS011;68362;45.970;12.646;2023-04-25T04:27:40;2.00;;;1.63;;
78960;SDS011;68362;45.970;12.646;2023-04-25T04:28:45;1.50;;;1.20;;
78960;SDS011;68362;45.970;12.646;2023-04-25T04:29:47;3.45;;;1.35;;
78960;SDS011;68362;45.970;12.646;2023-04-25T04:30:50;1.73;;;1.50;;
78960;SDS011;68362;45.970;12.646;2023-04-25T04:31:54;5.68;;;2.33;;
78960;SDS011;68362;45.970;12.646;2023-04-25T04:32:56;2.42;;;1.55;;
78960;SDS011;68362;45.970;12.646;2023-04-25T04:35:00;2.28;;;1.85;;
78960;SDS011;68362;45.970;12.646;2023-04-25T04:36:03;15.52;;;1.52;;
78960;SDS011;68362;45.970;12.646;2023-04-25T04:37:05;1.80;;;1.40;;
78960;SDS011;68362;45.970;12.646;2023-04-25T04:38:08;2.17;;;1.48;;
78960;SDS011;68362;45.970;12.646;2023-04-25T04:39:12;2.05;;;1.08;;
78960;SDS011;68362;45.970;12.646;2023-04-25T04:41:17;1.85;;;1.25;;
78960;SDS011;68362;45.970;12.646;2023-04-25T04:42:21;1.90;;;1.45;;
78960;SDS011;68362;45.970;12.646;2023-04-25T04:43:23;2.28;;;1.35;;
78960;SDS011;68362;45.970;12.646;2023-04-25T04:44:25;2.60;;;1.23;;
78960;SDS011;68362;45.970;12.646;2023-04-25T04:45:28;1.77;;;1.30;;
78960;SDS011;68362;45.970;12.646;2023-04-25T04:46:30;2.30;;;1.73;;
78960;SDS011;68362;45.970;12.646;2023-04-25T04:47:32;2.70;;;1.40;;
78960;SDS011;68362;45.970;12.646;2023-04-25T04:48:35;3.75;;;1.58;;
78960;SDS011;68362;45.970;12.646;2023-04-25T04:49:38;2.58;;;1.67;;
78960;SDS011;68362;45.970;12.646;2023-04-25T04:50:40;3.58;;;2.42;;
78960;SDS011;68362;45.970;12.646;2023-04-25T04:51:42;6.90;;;2.97;;
78960;SDS011;68362;45.970;12.646;2023-04-25T04:52:46;5.68;;;3.25;;
78960;SDS011;68362;45.970;12.646;2023-04-25T04:53:48;4.35;;;2.70;;
78960;SDS011;68362;45.970;12.646;2023-04-25T04:54:50;2.50;;;1.73;;
78960;SDS011;68362;45.970;12.646;2023-04-25T04:55:52;2.00;;;1.63;;
78960;SDS011;68362;45.970;12.646;2023-04-25T04:56:54;3.05;;;1.83;;
78960;SDS011;68362;45.970;12.646;2023-04-25T04:57:57;1.67;;;1.55;;
78960;SDS011;68362;45.970;12.646;2023-04-25T04:58:59;3.70;;;1.40;;
78960;SDS011;68362;45.970;12.646;2023-04-25T05:00:01;7.70;;;1.42;;
78960;SDS011;68362;45.970;12.646;2023-04-25T05:01:06;4.20;;;1.30;;
78960;SDS011;68362;45.970;12.646;2023-04-25T05:02:09;1.45;;;1.13;;
78960;SDS011;68362;45.970;12.646;2023-04-25T05:03:11;2.75;;;1.83;;
78960;SDS011;68362;45.970;12.646;2023-04-25T05:04:14;2.17;;;1.45;;
78960;SDS011;68362;45.970;12.646;2023-04-25T05:05:16;2.78;;;1.30;;
78960;SDS011;68362;45.970;12.646;2023-04-25T05:06:18;3.45;;;1.83;;
78960;SDS011;68362;45.970;12.646;2023-04-25T05:07:20;2.35;;;1.40;;
78960;SDS011;68362;45.970;12.646;2023-04-25T05:08:22;3.00;;;1.83;;
78960;SDS011;68362;45.970;12.646;2023-04-25T05:09:24;3.80;;;1.58;;
78960;SDS011;68362;45.970;12.646;2023-04-25T05:10:27;2.60;;;1.50;;
78960;SDS011;68362;45.970;12.646;2023-04-25T05:11:29;2.22;;;1.30;;
78960;SDS011;68362;45.970;12.646;2023-04-25T05:12:31;1.85;;;1.20;;
78960;SDS011;68362;45.970;12.646;2023-04-25T05:13:35;2.30;;;1.42;;
78960;SDS011;68362;45.970;12.646;2023-04-25T05:14:38;1.92;;;1.30;;
78960;SDS011;68362;45.970;12.646;2023-04-25T05:15:39;2.50;;;1.98;;
78960;SDS011;68362;45.970;12.646;2023-04-25T05:16:42;2.92;;;1.65;;
78960;SDS011;68362;45.970;12.646;2023-04-25T05:17:44;1.90;;;1.25;;
78960;SDS011;68362;45.970;12.646;2023-04-25T05:18:46;2.45;;;1.20;;
78960;SDS011;68362;45.970;12.646;2023-04-25T05:19:49;2.85;;;1.38;;
78960;SDS011;68362;45.970;12.646;2023-04-25T05:20:50;3.53;;;1.23;;
78960;SDS011;68362;45.970;12.646;2023-04-25T05:21:52;1.10;;;1.00;;
78960;SDS011;68362;45.970;12.646;2023-04-25T05:22:55;1.50;;;0.90;;
78960;SDS011;68362;45.970;12.646;2023-04-25T05:23:57;2.40;;;1.15;;
78960;SDS011;68362;45.970;12.646;2023-04-25T05:24:58;1.20;;;0.95;;
78960;SDS011;68362;45.970;12.646;2023-04-25T05:26:00;1.23;;;0.80;;
78960;SDS011;68362;45.970;12.646;2023-04-25T05:27:03;1.23;;;0.88;;
78960;SDS011;68362;45.970;12.646;2023-04-25T05:28:05;1.90;;;1.00;;
78960;SDS011;68362;45.970;12.646;2023-04-25T05:29:07;3.50;;;1.08;;
78960;SDS011;68362;45.970;12.646;2023-04-25T05:30:09;1.65;;;1.08;;
78960;SDS011;68362;45.970;12.646;2023-04-25T05:31:12;1.42;;;1.02;;
78960;SDS011;68362;45.970;12.646;2023-04-25T05:32:14;1.23;;;1.05;;
78960;SDS011;68362;45.970;12.646;2023-04-25T05:33:16;1.58;;;1.10;;
78960;SDS011;68362;45.970;12.646;2023-04-25T05:34:18;1.42;;;1.13;;
78960;SDS011;68362;45.970;12.646;2023-04-25T05:35:21;2.80;;;0.95;;
78960;SDS011;68362;45.970;12.646;2023-04-25T05:36:23;1.73;;;1.05;;
78960;SDS011;68362;45.970;12.646;2023-04-25T05:37:25;2.70;;;1.10;;
78960;SDS011;68362;45.970;12.646;2023-04-25T05:38:27;1.30;;;1.00;;
78960;SDS011;68362;45.970;12.646;2023-04-25T05:39:29;1.55;;;0.90;;
78960;SDS011;68362;45.970;12.646;2023-04-25T05:40:31;2.40;;;1.02;;
78960;SDS011;68362;45.970;12.646;2023-04-25T05:41:33;1.52;;;1.00;;
78960;SDS011;68362;45.970;12.646;2023-04-25T05:42:35;1.52;;;1.17;;
78960;SDS011;68362;45.970;12.646;2023-04-25T05:43:37;2.70;;;1.40;;
78960;SDS011;68362;45.970;12.646;2023-04-25T05:44:39;1.88;;;1.17;;
78960;SDS011;68362;45.970;12.646;2023-04-25T05:45:41;2.00;;;1.20;;
78960;SDS011;68362;45.970;12.646;2023-04-25T05:46:43;2.20;;;1.10;;
78960;SDS011;68362;45.970;12.646;2023-04-25T05:47:46;1.77;;;0.93;;
78960;SDS011;68362;45.970;12.646;2023-04-25T05:48:48;3.33;;;1.73;;
78960;SDS011;68362;45.970;12.646;2023-04-25T05:49:50;1.92;;;1.20;;
78960;SDS011;68362;45.970;12.646;2023-04-25T05:50:52;2.22;;;1.30;;
78960;SDS011;68362;45.970;12.646;2023-04-25T05:51:54;6.57;;;3.60;;
78960;SDS011;68362;45.970;12.646;2023-04-25T05:52:56;1.63;;;1.13;;
78960;SDS011;68362;45.970;12.646;2023-04-25T05:53:58;1.70;;;1.15;;
78960;SDS011;68362;45.970;12.646;2023-04-25T05:55:00;1.65;;;1.40;;
78960;SDS011;68362;45.970;12.646;2023-04-25T05:56:03;2.97;;;1.45;;
78960;SDS011;68362;45.970;12.646;2023-04-25T05:57:05;2.20;;;1.40;;
78960;SDS011;68362;45.970;12.646;2023-04-25T05:58:07;2.20;;;1.40;;
78960;SDS011;68362;45.970;12.646;2023-04-25T05:59:09;2.42;;;1.38;;
78960;SDS011;68362;45.970;12.646;2023-04-25T06:00:12;1.95;;;1.40;;
78960;SDS011;68362;45.970;12.646;2023-04-25T06:01:16;4.82;;;1.73;;
78960;SDS011;68362;45.970;12.646;2023-04-25T06:02:19;2.90;;;1.40;;
78960;SDS011;68362;45.970;12.646;2023-04-25T06:03:25;2.80;;;1.60;;
78960;SDS011;68362;45.970;12.646;2023-04-25T06:04:28;3.10;;;1.70;;
78960;SDS011;68362;45.970;12.646;2023-04-25T06:05:30;2.30;;;1.50;;
78960;SDS011;68362;45.970;12.646;2023-04-25T06:06:32;1.55;;;1.25;;
78960;SDS011;68362;45.970;12.646;2023-04-25T06:07:34;3.47;;;1.50;;
78960;SDS011;68362;45.970;12.646;2023-04-25T06:08:37;2.83;;;1.60;;
78960;SDS011;68362;45.970;12.646;2023-04-25T06:09:40;1.63;;;1.00;;
78960;SDS011;68362;45.970;12.646;2023-04-25T06:10:42;2.13;;;1.30;;
78960;SDS011;68362;45.970;12.646;2023-04-25T06:11:44;2.75;;;1.75;;
78960;SDS011;68362;45.970;12.646;2023-04-25T06:12:46;2.58;;;1.73;;
78960;SDS011;68362;45.970;12.646;2023-04-25T06:13:48;4.95;;;1.80;;
78960;SDS011;68362;45.970;12.646;2023-04-25T06:14:50;1.95;;;1.60;;
78960;SDS011;68362;45.970;12.646;2023-04-25T06:15:52;3.38;;;1.63;;